sensor_id;sensor_type;location;lat;lon;timestamp;pressure;altitude;pressure_sealevel;temperature;humidity
62103;BME280;48077;48.104;11.702;2023-03-19T00:02:12;95121.13;;;3.78;96.28
62103;BME280;48077;48.104;11.702;2023-03-19T00:04:36;95142.91;;;3.94;96.61
62103;BME280;48077;48.104;11.702;2023-03-19T00:06:59;95103.25;;;3.67;96.63
62103;BME280;48077;48.104;11.702;2023-03-19T00:09:23;95123.75;;;3.72;96.13
62103;BME280;48077;48.104;11.702;2023-03-19T00:11:47;95131.88;;;3.70;96.41
62103;BME280;48077;48.104;11.702;2023-03-19T00:14:10;95130.44;;;3.68;96.83
62103;BME280;48077;48.104;11.702;2023-03-19T00:16:34;95156.66;;;3.76;96.92
62103;BME280;48077;48.104;11.702;2023-03-19T00:18:58;95127.19;;;3.59;96.62
62103;BME280;48077;48.104;11.702;2023-03-19T00:21:22;95143.81;;;3.66;96.85
62103;BME280;48077;48.104;11.702;2023-03-19T00:23:45;95127.38;;;3.57;97.64
62103;BME280;48077;48.104;11.702;2023-03-19T00:26:09;95125.53;;;3.58;97.16
62103;BME280;48077;48.104;11.702;2023-03-19T00:28:32;95123.50;;;3.53;97.90
62103;BME280;48077;48.104;11.702;2023-03-19T00:30:56;95129.00;;;3.58;97.45
62103;BME280;48077;48.104;11.702;2023-03-19T00:33:22;95155.59;;;3.70;96.79
62103;BME280;48077;48.104;11.702;2023-03-19T00:35:45;95130.19;;;3.49;97.39
62103;BME280;48077;48.104;11.702;2023-03-19T00:38:08;95115.13;;;3.36;97.30
62103;BME280;48077;48.104;11.702;2023-03-19T00:40:32;95135.03;;;3.45;97.52
62103;BME280;48077;48.104;11.702;2023-03-19T00:42:55;95157.78;;;3.53;97.65
62103;BME280;48077;48.104;11.702;2023-03-19T00:45:19;95162.25;;;3.53;97.23
62103;BME280;48077;48.104;11.702;2023-03-19T00:47:44;95165.88;;;3.52;97.37
62103;BME280;48077;48.104;11.702;2023-03-19T00:50:08;95168.31;;;3.47;97.85
62103;BME280;48077;48.104;11.702;2023-03-19T00:52:32;95157.13;;;3.38;97.66
62103;BME280;48077;48.104;11.702;2023-03-19T00:54:55;95143.47;;;3.28;97.51
62103;BME280;48077;48.104;11.702;2023-03-19T00:57:19;95181.91;;;3.50;97.78
62103;BME280;48077;48.104;11.702;2023-03-19T00:59:42;95110.31;;;3.05;97.25
62103;BME280;48077;48.104;11.702;2023-03-19T01:02:06;95168.63;;;3.30;97.66
62103;BME280;48077;48.104;11.702;2023-03-19T01:04:37;95116.50;;;2.84;97.57
62103;BME280;48077;48.104;11.702;2023-03-19T01:07:00;95139.50;;;3.03;97.95
62103;BME280;48077;48.104;11.702;2023-03-19T01:09:26;95155.75;;;3.14;98.01
62103;BME280;48077;48.104;11.702;2023-03-19T01:11:49;95184.03;;;3.33;97.82
62103;BME280;48077;48.104;11.702;2023-03-19T01:14:14;95109.56;;;2.83;97.69
62103;BME280;48077;48.104;11.702;2023-03-19T01:16:38;95157.34;;;3.08;98.02
62103;BME280;48077;48.104;11.702;2023-03-19T01:19:02;95186.88;;;3.25;97.97
62103;BME280;48077;48.104;11.702;2023-03-19T01:21:26;95179.94;;;3.24;98.31
62103;BME280;48077;48.104;11.702;2023-03-19T01:23:53;95150.03;;;3.03;97.95
62103;BME280;48077;48.104;11.702;2023-03-19T01:26:16;95152.03;;;3.01;97.83
62103;BME280;48077;48.104;11.702;2023-03-19T01:28:40;95162.59;;;3.01;98.13
62103;BME280;48077;48.104;11.702;2023-03-19T01:31:07;95104.56;;;2.60;98.71
62103;BME280;48077;48.104;11.702;2023-03-19T01:33:31;95154.47;;;2.96;98.62
62103;BME280;48077;48.104;11.702;2023-03-19T01:35:55;95149.78;;;2.92;98.84
62103;BME280;48077;48.104;11.702;2023-03-19T01:38:20;95143.00;;;2.82;98.40
62103;BME280;48077;48.104;11.702;2023-03-19T01:40:44;95158.22;;;2.87;98.84
62103;BME280;48077;48.104;11.702;2023-03-19T01:43:21;95157.63;;;2.85;99.05
62103;BME280;48077;48.104;11.702;2023-03-19T01:45:45;95181.00;;;2.95;99.07
62103;BME280;48077;48.104;11.702;2023-03-19T01:48:29;95141.91;;;2.70;99.14
62103;BME280;48077;48.104;11.702;2023-03-19T01:50:56;95171.03;;;2.90;100.00
62103;BME280;48077;48.104;11.702;2023-03-19T01:53:24;95168.41;;;2.90;99.89
62103;BME280;48077;48.104;11.702;2023-03-19T01:55:48;95163.97;;;2.97;100.00
62103;BME280;48077;48.104;11.702;2023-03-19T01:58:12;95160.09;;;2.93;99.85
62103;BME280;48077;48.104;11.702;2023-03-19T02:00:37;95163.94;;;2.91;99.28
62103;BME280;48077;48.104;11.702;2023-03-19T02:03:02;95175.28;;;2.91;99.97
62103;BME280;48077;48.104;11.702;2023-03-19T02:05:26;95181.56;;;2.90;100.00
62103;BME280;48077;48.104;11.702;2023-03-19T02:07:55;95164.50;;;2.79;99.70
62103;BME280;48077;48.104;11.702;2023-03-19T02:10:21;95175.03;;;2.79;100.00
62103;BME280;48077;48.104;11.702;2023-03-19T02:12:45;95177.25;;;2.82;100.00
62103;BME280;48077;48.104;11.702;2023-03-19T02:15:09;95183.78;;;2.87;100.00
62103;BME280;48077;48.104;11.702;2023-03-19T02:17:32;95167.31;;;2.78;99.79
62103;BME280;48077;48.104;11.702;2023-03-19T02:22:21;95179.88;;;2.82;99.34
62103;BME280;48077;48.104;11.702;2023-03-19T02:27:18;95179.44;;;2.79;99.63
62103;BME280;48077;48.104;11.702;2023-03-19T02:29:41;95167.13;;;2.79;99.81
62103;BME280;48077;48.104;11.702;2023-03-19T02:32:05;95167.47;;;2.76;99.87
62103;BME280;48077;48.104;11.702;2023-03-19T02:34:34;95167.25;;;2.71;99.98
62103;BME280;48077;48.104;11.702;2023-03-19T02:37:02;95158.91;;;2.68;99.74
62103;BME280;48077;48.104;11.702;2023-03-19T02:39:56;95157.69;;;2.63;99.83
62103;BME280;48077;48.104;11.702;2023-03-19T02:42:18;95140.41;;;2.54;99.88
62103;BME280;48077;48.104;11.702;2023-03-19T02:44:43;95149.72;;;2.57;100.00
62103;BME280;48077;48.104;11.702;2023-03-19T02:47:08;95137.06;;;2.46;99.66
62103;BME280;48077;48.104;11.702;2023-03-19T02:49:34;95170.06;;;2.70;99.67
62103;BME280;48077;48.104;11.702;2023-03-19T02:51:58;95185.56;;;2.79;98.96
62103;BME280;48077;48.104;11.702;2023-03-19T02:54:21;95186.25;;;2.67;99.00
62103;BME280;48077;48.104;11.702;2023-03-19T02:56:45;95190.28;;;2.62;100.00
62103;BME280;48077;48.104;11.702;2023-03-19T02:59:08;95205.25;;;2.62;99.52
62103;BME280;48077;48.104;11.702;2023-03-19T03:01:32;95182.22;;;2.42;100.00
62103;BME280;48077;48.104;11.702;2023-03-19T03:03:55;95185.47;;;2.45;99.68
62103;BME280;48077;48.104;11.702;2023-03-19T03:06:19;95179.31;;;2.37;99.85
62103;BME280;48077;48.104;11.702;2023-03-19T03:08:43;95176.47;;;2.32;100.00
62103;BME280;48077;48.104;11.702;2023-03-19T03:11:06;95193.56;;;2.43;100.00
62103;BME280;48077;48.104;11.702;2023-03-19T03:13:29;95172.13;;;2.25;100.00
62103;BME280;48077;48.104;11.702;2023-03-19T03:15:55;95177.22;;;2.26;100.00
62103;BME280;48077;48.104;11.702;2023-03-19T03:18:19;95211.63;;;2.46;100.00
62103;BME280;48077;48.104;11.702;2023-03-19T03:20:42;95205.09;;;2.42;100.00
62103;BME280;48077;48.104;11.702;2023-03-19T03:23:08;95149.09;;;2.05;100.00
62103;BME280;48077;48.104;11.702;2023-03-19T03:25:31;95171.25;;;2.17;99.93
62103;BME280;48077;48.104;11.702;2023-03-19T03:27:55;95140.69;;;1.95;99.77
62103;BME280;48077;48.104;11.702;2023-03-19T03:30:18;95152.53;;;2.06;100.00
62103;BME280;48077;48.104;11.702;2023-03-19T03:32:49;95145.03;;;2.02;99.88
62103;BME280;48077;48.104;11.702;2023-03-19T03:35:13;95132.00;;;1.94;99.81
62103;BME280;48077;48.104;11.702;2023-03-19T03:37:47;95093.91;;;1.69;99.98
62103;BME280;48077;48.104;11.702;2023-03-19T03:40:15;95144.34;;;1.94;99.09
62103;BME280;48077;48.104;11.702;2023-03-19T03:42:39;95182.41;;;2.19;99.64
62103;BME280;48077;48.104;11.702;2023-03-19T03:45:03;95199.06;;;2.27;99.78
62103;BME280;48077;48.104;11.702;2023-03-19T03:47:26;95220.19;;;2.33;100.00
62103;BME280;48077;48.104;11.702;2023-03-19T03:49:50;95199.91;;;2.27;100.00
62103;BME280;48077;48.104;11.702;2023-03-19T03:52:14;95188.50;;;2.20;100.00
62103;BME280;48077;48.104;11.702;2023-03-19T03:54:37;95219.63;;;2.38;100.00
62103;BME280;48077;48.104;11.702;2023-03-19T03:57:01;95207.72;;;2.20;99.51
62103;BME280;48077;48.104;11.702;2023-03-19T03:59:24;95230.84;;;2.25;99.93
62103;BME280;48077;48.104;11.702;2023-03-19T04:01:48;95223.00;;;2.10;100.00
62103;BME280;48077;48.104;11.702;2023-03-19T04:04:11;95207.06;;;1.97;100.00
62103;BME280;48077;48.104;11.702;2023-03-19T04:06:35;95200.63;;;1.99;100.00
62103;BME280;48077;48.104;11.702;2023-03-19T04:08:58;95229.78;;;2.19;100.00
62103;BME280;48077;48.104;11.702;2023-03-19T04:11:21;95204.34;;;2.05;100.00
62103;BME280;48077;48.104;11.702;2023-03-19T04:13:45;95227.78;;;2.21;100.00
62103;BME280;48077;48.104;11.702;2023-03-19T04:16:09;95229.78;;;2.19;100.00
62103;BME280;48077;48.104;11.702;2023-03-19T04:18:33;95241.19;;;2.27;100.00
62103;BME280;48077;48.104;11.702;2023-03-19T04:20:56;95226.53;;;2.17;100.00
62103;BME280;48077;48.104;11.702;2023-03-19T04:23:20;95239.56;;;2.26;100.00
62103;BME280;48077;48.104;11.702;2023-03-19T04:25:43;95248.25;;;2.26;100.00
62103;BME280;48077;48.104;11.702;2023-03-19T04:28:06;95246.31;;;2.35;100.00
62103;BME280;48077;48.104;11.702;2023-03-19T04:30:31;95229.03;;;2.26;100.00
62103;BME280;48077;48.104;11.702;2023-03-19T04:32:54;95228.22;;;2.25;100.00
62103;BME280;48077;48.104;11.702;2023-03-19T04:35:18;95238.59;;;2.33;100.00
62103;BME280;48077;48.104;11.702;2023-03-19T04:37:42;95229.84;;;2.26;100.00
62103;BME280;48077;48.104;11.702;2023-03-19T04:40:10;95203.59;;;2.11;100.00
62103;BME280;48077;48.104;11.702;2023-03-19T04:42:34;95230.03;;;2.25;100.00
62103;BME280;48077;48.104;11.702;2023-03-19T04:44:57;95236.13;;;2.25;100.00
62103;BME280;48077;48.104;11.702;2023-03-19T04:47:21;95233.59;;;2.17;100.00
62103;BME280;48077;48.104;11.702;2023-03-19T04:49:44;95209.03;;;2.10;100.00
62103;BME280;48077;48.104;11.702;2023-03-19T04:52:08;95252.78;;;2.32;100.00
62103;BME280;48077;48.104;11.702;2023-03-19T04:54:31;95243.06;;;2.33;100.00
62103;BME280;48077;48.104;11.702;2023-03-19T04:56:55;95248.59;;;2.38;100.00
62103;BME280;48077;48.104;11.702;2023-03-19T04:59:18;95235.91;;;2.27;100.00
62103;BME280;48077;48.104;11.702;2023-03-19T05:01:41;95237.56;;;2.28;100.00
62103;BME280;48077;48.104;11.702;2023-03-19T05:04:05;95246.31;;;2.35;100.00
62103;BME280;48077;48.104;11.702;2023-03-19T05:06:29;95259.81;;;2.47;100.00
62103;BME280;48077;48.104;11.702;2023-03-19T05:08:54;95270.34;;;2.47;100.00
62103;BME280;48077;48.104;11.702;2023-03-19T05:11:17;95239.16;;;2.29;100.00
62103;BME280;48077;48.104;11.702;2023-03-19T05:13:41;95253.66;;;2.39;100.00
62103;BME280;48077;48.104;11.702;2023-03-19T05:16:05;95267.25;;;2.43;100.00
62103;BME280;48077;48.104;11.702;2023-03-19T05:18:32;95240.75;;;2.23;100.00
62103;BME280;48077;48.104;11.702;2023-03-19T05:20:56;95280.88;;;2.47;100.00
62103;BME280;48077;48.104;11.702;2023-03-19T05:23:21;95282.88;;;2.45;100.00
62103;BME280;48077;48.104;11.702;2023-03-19T05:25:45;95283.88;;;2.43;100.00
62103;BME280;48077;48.104;11.702;2023-03-19T05:28:09;95261.25;;;2.28;100.00
62103;BME280;48077;48.104;11.702;2023-03-19T05:30:33;95276.53;;;2.39;100.00
62103;BME280;48077;48.104;11.702;2023-03-19T05:32:57;95282.44;;;2.41;100.00
62103;BME280;48077;48.104;11.702;2023-03-19T05:35:20;95297.34;;;2.55;100.00
62103;BME280;48077;48.104;11.702;2023-03-19T05:37:44;95286.59;;;2.50;100.00
62103;BME280;48077;48.104;11.702;2023-03-19T05:40:10;95303.94;;;2.66;100.00
62103;BME280;48077;48.104;11.702;2023-03-19T05:42:34;95293.59;;;2.64;100.00
62103;BME280;48077;48.104;11.702;2023-03-19T05:44:57;95289.34;;;2.63;100.00
62103;BME280;48077;48.104;11.702;2023-03-19T05:47:21;95313.03;;;2.85;100.00
62103;BME280;48077;48.104;11.702;2023-03-19T05:49:47;95316.38;;;2.94;100.00
62103;BME280;48077;48.104;11.702;2023-03-19T05:52:10;95319.47;;;3.04;100.00
62103;BME280;48077;48.104;11.702;2023-03-19T05:54:33;95296.09;;;2.94;100.00
62103;BME280;48077;48.104;11.702;2023-03-19T05:56:57;95324.28;;;3.22;100.00
62103;BME280;48077;48.104;11.702;2023-03-19T05:59:21;95296.69;;;3.18;100.00
62103;BME280;48077;48.104;11.702;2023-03-19T06:01:44;95315.84;;;3.33;100.00
62103;BME280;48077;48.104;11.702;2023-03-19T06:04:10;95310.03;;;3.38;100.00
62103;BME280;48077;48.104;11.702;2023-03-19T06:06:33;95339.25;;;3.71;100.00
62103;BME280;48077;48.104;11.702;2023-03-19T06:08:56;95301.84;;;3.61;100.00
62103;BME280;48077;48.104;11.702;2023-03-19T06:11:20;95331.06;;;3.94;100.00
62103;BME280;48077;48.104;11.702;2023-03-19T06:13:43;95288.81;;;3.88;100.00
62103;BME280;48077;48.104;11.702;2023-03-19T06:16:08;95336.50;;;4.28;100.00
62103;BME280;48077;48.104;11.702;2023-03-19T06:18:32;95332.44;;;4.32;100.00
62103;BME280;48077;48.104;11.702;2023-03-19T06:20:57;95332.91;;;4.49;100.00
62103;BME280;48077;48.104;11.702;2023-03-19T06:23:23;95362.63;;;4.71;100.00
62103;BME280;48077;48.104;11.702;2023-03-19T06:25:46;95353.91;;;4.77;100.00
62103;BME280;48077;48.104;11.702;2023-03-19T06:28:10;95328.50;;;4.69;100.00
62103;BME280;48077;48.104;11.702;2023-03-19T06:30:35;95324.03;;;4.76;100.00
62103;BME280;48077;48.104;11.702;2023-03-19T06:32:59;95346.84;;;4.91;100.00
62103;BME280;48077;48.104;11.702;2023-03-19T06:35:22;95376.56;;;5.13;100.00
62103;BME280;48077;48.104;11.702;2023-03-19T06:37:46;95382.47;;;5.21;100.00
62103;BME280;48077;48.104;11.702;2023-03-19T06:40:09;95345.84;;;5.05;100.00
62103;BME280;48077;48.104;11.702;2023-03-19T06:42:33;95388.38;;;5.37;100.00
62103;BME280;48077;48.104;11.702;2023-03-19T06:44:56;95378.22;;;5.40;100.00
62103;BME280;48077;48.104;11.702;2023-03-19T06:47:20;95386.16;;;5.47;100.00
62103;BME280;48077;48.104;11.702;2023-03-19T06:49:43;95384.72;;;5.51;100.00
62103;BME280;48077;48.104;11.702;2023-03-19T06:52:07;95337.31;;;5.23;100.00
62103;BME280;48077;48.104;11.702;2023-03-19T06:54:30;95365.19;;;5.52;99.78
62103;BME280;48077;48.104;11.702;2023-03-19T06:56:54;95397.16;;;5.77;100.00
62103;BME280;48077;48.104;11.702;2023-03-19T06:59:17;95370.28;;;5.67;100.00
62103;BME280;48077;48.104;11.702;2023-03-19T07:01:41;95378.41;;;5.72;100.00
62103;BME280;48077;48.104;11.702;2023-03-19T07:04:04;95411.38;;;5.90;99.35
62103;BME280;48077;48.104;11.702;2023-03-19T07:06:28;95426.25;;;6.04;99.36
62103;BME280;48077;48.104;11.702;2023-03-19T07:08:54;95421.56;;;6.13;99.26
62103;BME280;48077;48.104;11.702;2023-03-19T07:11:18;95407.91;;;6.16;98.41
62103;BME280;48077;48.104;11.702;2023-03-19T07:13:41;95423.16;;;6.34;97.65
62103;BME280;48077;48.104;11.702;2023-03-19T07:16:05;95424.13;;;6.39;97.30
62103;BME280;48077;48.104;11.702;2023-03-19T07:18:29;95434.91;;;6.51;96.47
62103;BME280;48077;48.104;11.702;2023-03-19T07:20:52;95440.63;;;6.55;96.20
62103;BME280;48077;48.104;11.702;2023-03-19T07:23:16;95444.47;;;6.59;96.10
62103;BME280;48077;48.104;11.702;2023-03-19T07:25:39;95447.31;;;6.64;95.95
62103;BME280;48077;48.104;11.702;2023-03-19T07:28:03;95458.72;;;6.71;96.08
62103;BME280;48077;48.104;11.702;2023-03-19T07:30:27;95437.78;;;6.56;96.61
62103;BME280;48077;48.104;11.702;2023-03-19T07:32:53;95448.72;;;6.66;97.79
62103;BME280;48077;48.104;11.702;2023-03-19T07:35:16;95462.78;;;6.74;98.08
62103;BME280;48077;48.104;11.702;2023-03-19T07:37:40;95455.22;;;6.71;98.36
62103;BME280;48077;48.104;11.702;2023-03-19T07:40:04;95479.47;;;6.87;99.14
62103;BME280;48077;48.104;11.702;2023-03-19T07:42:29;95482.50;;;6.91;99.63
62103;BME280;48077;48.104;11.702;2023-03-19T07:44:53;95480.25;;;6.95;100.00
62103;BME280;48077;48.104;11.702;2023-03-19T07:47:16;95478.84;;;6.92;99.63
62103;BME280;48077;48.104;11.702;2023-03-19T07:49:39;95475.75;;;6.95;99.58
62103;BME280;48077;48.104;11.702;2023-03-19T07:52:03;95483.47;;;7.03;100.00
62103;BME280;48077;48.104;11.702;2023-03-19T07:54:26;95484.88;;;7.06;100.00
62103;BME280;48077;48.104;11.702;2023-03-19T07:56:50;95478.34;;;7.08;99.31
62103;BME280;48077;48.104;11.702;2023-03-19T07:59:13;95487.53;;;7.13;99.05
62103;BME280;48077;48.104;11.702;2023-03-19T08:01:36;95473.44;;;7.12;99.46
62103;BME280;48077;48.104;11.702;2023-03-19T08:04:00;95460.78;;;7.14;98.59
62103;BME280;48077;48.104;11.702;2023-03-19T08:06:28;95476.19;;;7.30;98.01
62103;BME280;48077;48.104;11.702;2023-03-19T08:08:51;95457.03;;;7.28;97.41
62103;BME280;48077;48.104;11.702;2023-03-19T08:11:15;95467.00;;;7.33;97.94
62103;BME280;48077;48.104;11.702;2023-03-19T08:13:38;95496.69;;;7.55;97.09
62103;BME280;48077;48.104;11.702;2023-03-19T08:16:01;95454.72;;;7.39;97.72
62103;BME280;48077;48.104;11.702;2023-03-19T08:18:25;95462.03;;;7.50;97.79
62103;BME280;48077;48.104;11.702;2023-03-19T08:20:49;95478.84;;;7.62;98.03
62103;BME280;48077;48.104;11.702;2023-03-19T08:23:15;95473.59;;;7.56;98.48
62103;BME280;48077;48.104;11.702;2023-03-19T08:25:47;95493.94;;;7.68;98.19
62103;BME280;48077;48.104;11.702;2023-03-19T08:28:10;95464.63;;;7.57;97.59
62103;BME280;48077;48.104;11.702;2023-03-19T08:30:35;95488.59;;;7.75;97.09
62103;BME280;48077;48.104;11.702;2023-03-19T08:32:59;95483.28;;;7.75;97.29
62103;BME280;48077;48.104;11.702;2023-03-19T08:35:23;95478.84;;;7.69;96.63
62103;BME280;48077;48.104;11.702;2023-03-19T08:37:49;95473.13;;;7.65;96.63
62103;BME280;48077;48.104;11.702;2023-03-19T08:40:12;95489.41;;;7.76;96.95
62103;BME280;48077;48.104;11.702;2023-03-19T08:42:35;95471.34;;;7.59;97.58
62103;BME280;48077;48.104;11.702;2023-03-19T08:45:04;95500.22;;;7.74;97.59
62103;BME280;48077;48.104;11.702;2023-03-19T08:47:27;95493.94;;;7.68;97.97
62103;BME280;48077;48.104;11.702;2023-03-19T08:49:51;95511.44;;;7.76;97.66
62103;BME280;48077;48.104;11.702;2023-03-19T08:52:14;95513.69;;;7.79;97.91
62103;BME280;48077;48.104;11.702;2023-03-19T08:54:38;95501.28;;;7.73;97.61
62103;BME280;48077;48.104;11.702;2023-03-19T08:57:02;95521.81;;;7.84;97.71
62103;BME280;48077;48.104;11.702;2023-03-19T08:59:26;95499.63;;;7.72;98.34
62103;BME280;48077;48.104;11.702;2023-03-19T09:01:52;95516.31;;;7.86;98.26
62103;BME280;48077;48.104;11.702;2023-03-19T09:04:16;95522.75;;;7.97;98.11
62103;BME280;48077;48.104;11.702;2023-03-19T09:06:39;95525.22;;;7.98;98.08
62103;BME280;48077;48.104;11.702;2023-03-19T09:09:05;95501.31;;;7.98;98.35
62103;BME280;48077;48.104;11.702;2023-03-19T09:11:29;95501.47;;;8.03;97.79
62103;BME280;48077;48.104;11.702;2023-03-19T09:13:53;95525.22;;;8.23;97.55
62103;BME280;48077;48.104;11.702;2023-03-19T09:16:16;95524.13;;;8.31;96.26
62103;BME280;48077;48.104;11.702;2023-03-19T09:18:40;95519.63;;;8.31;95.77
62103;BME280;48077;48.104;11.702;2023-03-19T09:21:04;95514.53;;;8.30;95.44
62103;BME280;48077;48.104;11.702;2023-03-19T09:23:28;95537.28;;;8.51;94.83
62103;BME280;48077;48.104;11.702;2023-03-19T09:25:51;95534.53;;;8.58;94.61
62103;BME280;48077;48.104;11.702;2023-03-19T09:28:15;95515.00;;;8.52;93.92
62103;BME280;48077;48.104;11.702;2023-03-19T09:30:38;95536.25;;;8.70;93.52
62103;BME280;48077;48.104;11.702;2023-03-19T09:33:02;95536.56;;;8.81;92.55
62103;BME280;48077;48.104;11.702;2023-03-19T09:35:26;95538.53;;;8.92;92.65
62103;BME280;48077;48.104;11.702;2023-03-19T09:37:53;95532.91;;;9.00;90.98
62103;BME280;48077;48.104;11.702;2023-03-19T09:40:23;95546.25;;;9.12;89.64
62103;BME280;48077;48.104;11.702;2023-03-19T09:45:40;95543.59;;;9.30;87.35
62103;BME280;48077;48.104;11.702;2023-03-19T09:48:06;95542.72;;;9.37;87.50
62103;BME280;48077;48.104;11.702;2023-03-19T09:50:34;95545.53;;;9.42;87.15
62103;BME280;48077;48.104;11.702;2023-03-19T09:55:40;95548.09;;;9.48;86.32
62103;BME280;48077;48.104;11.702;2023-03-19T09:58:12;95557.25;;;9.52;86.02
62103;BME280;48077;48.104;11.702;2023-03-19T10:00:38;95555.78;;;9.57;86.35
62103;BME280;48077;48.104;11.702;2023-03-19T10:11:27;95537.72;;;9.89;84.99
62103;BME280;48077;48.104;11.702;2023-03-19T10:16:44;95515.66;;;10.24;81.67
62103;BME280;48077;48.104;11.702;2023-03-19T10:19:16;95534.50;;;10.52;81.43
62103;BME280;48077;48.104;11.702;2023-03-19T10:21:54;95527.09;;;10.66;80.76
62103;BME280;48077;48.104;11.702;2023-03-19T10:24:46;95514.69;;;10.84;79.28
62103;BME280;48077;48.104;11.702;2023-03-19T10:27:19;95519.75;;;10.97;78.24
62103;BME280;48077;48.104;11.702;2023-03-19T10:29:43;95527.75;;;11.09;79.06
62103;BME280;48077;48.104;11.702;2023-03-19T10:32:17;95526.25;;;11.13;77.00
62103;BME280;48077;48.104;11.702;2023-03-19T10:34:50;95521.81;;;11.19;76.59
62103;BME280;48077;48.104;11.702;2023-03-19T10:39:43;95535.97;;;11.19;74.50
62103;BME280;48077;48.104;11.702;2023-03-19T10:44:55;95532.00;;;11.33;74.14
62103;BME280;48077;48.104;11.702;2023-03-19T10:47:19;95528.72;;;11.43;73.41
62103;BME280;48077;48.104;11.702;2023-03-19T10:49:49;95533.47;;;11.41;72.89
62103;BME280;48077;48.104;11.702;2023-03-19T10:52:23;95519.81;;;11.38;72.72
62103;BME280;48077;48.104;11.702;2023-03-19T10:54:47;95513.91;;;11.36;73.73
62103;BME280;48077;48.104;11.702;2023-03-19T10:57:28;95523.16;;;11.33;72.78
62103;BME280;48077;48.104;11.702;2023-03-19T10:59:54;95504.97;;;11.18;72.79
62103;BME280;48077;48.104;11.702;2023-03-19T11:02:20;95503.03;;;11.13;72.20
62103;BME280;48077;48.104;11.702;2023-03-19T11:04:45;95529.00;;;11.18;72.65
62103;BME280;48077;48.104;11.702;2023-03-19T11:07:14;95523.88;;;11.17;73.43
62103;BME280;48077;48.104;11.702;2023-03-19T11:09:47;95518.91;;;11.20;72.67
62103;BME280;48077;48.104;11.702;2023-03-19T11:14:41;95510.81;;;11.03;72.15
62103;BME280;48077;48.104;11.702;2023-03-19T11:17:25;95523.22;;;11.09;72.08
62103;BME280;48077;48.104;11.702;2023-03-19T11:19:55;95518.94;;;11.08;71.54
62103;BME280;48077;48.104;11.702;2023-03-19T11:22:29;95519.19;;;11.07;71.67
62103;BME280;48077;48.104;11.702;2023-03-19T11:24:56;95520.69;;;11.03;71.41
62103;BME280;48077;48.104;11.702;2023-03-19T11:27:32;95523.22;;;11.09;70.78
62103;BME280;48077;48.104;11.702;2023-03-19T11:30:00;95493.88;;;10.98;69.94
62103;BME280;48077;48.104;11.702;2023-03-19T11:35:27;95519.28;;;11.12;69.40
62103;BME280;48077;48.104;11.702;2023-03-19T11:37:57;95511.13;;;11.19;68.90
62103;BME280;48077;48.104;11.702;2023-03-19T11:43:20;95504.53;;;11.21;69.35
62103;BME280;48077;48.104;11.702;2023-03-19T11:48:45;95484.56;;;11.12;68.85
62103;BME280;48077;48.104;11.702;2023-03-19T11:56:39;95490.44;;;11.38;67.82
62103;BME280;48077;48.104;11.702;2023-03-19T12:02:20;95464.63;;;11.43;66.54
62103;BME280;48077;48.104;11.702;2023-03-19T12:04:52;95480.88;;;12.16;64.81
62103;BME280;48077;48.104;11.702;2023-03-19T12:10:44;95473.78;;;12.78;63.03
62103;BME280;48077;48.104;11.702;2023-03-19T12:13:33;95471.59;;;12.74;62.68
62103;BME280;48077;48.104;11.702;2023-03-19T12:22:18;95461.34;;;12.49;62.55
62103;BME280;48077;48.104;11.702;2023-03-19T12:24:54;95467.81;;;12.53;64.25
62103;BME280;48077;48.104;11.702;2023-03-19T12:30:11;95444.72;;;12.47;62.63
62103;BME280;48077;48.104;11.702;2023-03-19T12:35:25;95430.69;;;12.57;62.08
62103;BME280;48077;48.104;11.702;2023-03-19T12:38:00;95448.56;;;12.95;62.01
62103;BME280;48077;48.104;11.702;2023-03-19T12:40:33;95451.94;;;13.52;59.29
62103;BME280;48077;48.104;11.702;2023-03-19T12:42:58;95437.91;;;13.99;57.26
62103;BME280;48077;48.104;11.702;2023-03-19T12:45:31;95414.13;;;14.08;56.46
62103;BME280;48077;48.104;11.702;2023-03-19T12:48:13;95414.56;;;14.74;54.92
62103;BME280;48077;48.104;11.702;2023-03-19T12:50:40;95414.59;;;15.37;54.55
62103;BME280;48077;48.104;11.702;2023-03-19T12:53:10;95435.38;;;15.73;52.75
62103;BME280;48077;48.104;11.702;2023-03-19T12:55:41;95414.41;;;15.80;50.12
62103;BME280;48077;48.104;11.702;2023-03-19T12:58:23;95428.28;;;15.41;51.41
62103;BME280;48077;48.104;11.702;2023-03-19T13:01:02;95432.38;;;15.69;51.23
62103;BME280;48077;48.104;11.702;2023-03-19T13:03:38;95421.59;;;15.59;51.19
62103;BME280;48077;48.104;11.702;2023-03-19T13:06:43;95420.50;;;15.40;49.93
62103;BME280;48077;48.104;11.702;2023-03-19T13:09:31;95420.78;;;15.53;49.39
62103;BME280;48077;48.104;11.702;2023-03-19T13:12:12;95411.19;;;15.78;49.28
62103;BME280;48077;48.104;11.702;2023-03-19T13:14:51;95413.72;;;15.22;50.12
62103;BME280;48077;48.104;11.702;2023-03-19T13:20:18;95415.34;;;14.27;53.28
62103;BME280;48077;48.104;11.702;2023-03-19T13:22:49;95418.94;;;14.06;54.24
62103;BME280;48077;48.104;11.702;2023-03-19T13:25:21;95396.13;;;13.71;53.42
62103;BME280;48077;48.104;11.702;2023-03-19T13:27:53;95416.50;;;13.72;53.65
62103;BME280;48077;48.104;11.702;2023-03-19T13:30:17;95406.00;;;13.65;54.24
62103;BME280;48077;48.104;11.702;2023-03-19T13:40:52;95384.31;;;13.67;54.71
62103;BME280;48077;48.104;11.702;2023-03-19T13:48:35;95404.66;;;13.19;56.05
62103;BME280;48077;48.104;11.702;2023-03-19T13:51:03;95405.63;;;13.07;55.23
62103;BME280;48077;48.104;11.702;2023-03-19T13:55:53;95408.75;;;12.77;56.03
62103;BME280;48077;48.104;11.702;2023-03-19T13:58:22;95408.31;;;12.63;56.62
62103;BME280;48077;48.104;11.702;2023-03-19T14:01:08;95393.59;;;12.44;58.06
62103;BME280;48077;48.104;11.702;2023-03-19T14:03:34;95400.41;;;12.34;58.18
62103;BME280;48077;48.104;11.702;2023-03-19T14:05:59;95399.94;;;12.21;56.99
62103;BME280;48077;48.104;11.702;2023-03-19T14:08:44;95381.75;;;12.01;57.43
62103;BME280;48077;48.104;11.702;2023-03-19T14:11:21;95394.38;;;12.05;58.41